sensor_id;sensor_type;location;lat;lon;timestamp;temperature;humidity
25208;DHT22;13153;52.316;21.166;2023-05-07T00:02:01;6.30;99.90
25208;DHT22;13153;52.316;21.166;2023-05-07T00:04:28;6.30;99.90
25208;DHT22;13153;52.316;21.166;2023-05-07T00:06:54;6.30;99.90
25208;DHT22;13153;52.316;21.166;2023-05-07T00:09:21;6.30;99.90
25208;DHT22;13153;52.316;21.166;2023-05-07T00:11:46;6.20;99.90
25208;DHT22;13153;52.316;21.166;2023-05-07T00:14:12;6.30;99.90
25208;DHT22;13153;52.316;21.166;2023-05-07T00:16:38;6.20;99.90
25208;DHT22;13153;52.316;21.166;2023-05-07T00:19:03;6.20;99.90
25208;DHT22;13153;52.316;21.166;2023-05-07T00:21:29;6.20;99.90
25208;DHT22;13153;52.316;21.166;2023-05-07T00:23:55;6.20;99.90
25208;DHT22;13153;52.316;21.166;2023-05-07T00:26:22;6.20;99.90
25208;DHT22;13153;52.316;21.166;2023-05-07T00:28:47;6.20;99.90
25208;DHT22;13153;52.316;21.166;2023-05-07T00:31:13;6.20;99.90
25208;DHT22;13153;52.316;21.166;2023-05-07T00:33:39;6.20;99.90
25208;DHT22;13153;52.316;21.166;2023-05-07T00:36:05;6.20;99.90
25208;DHT22;13153;52.316;21.166;2023-05-07T00:38:31;6.20;99.90
25208;DHT22;13153;52.316;21.166;2023-05-07T00:40:56;6.10;99.90
25208;DHT22;13153;52.316;21.166;2023-05-07T00:43:22;6.20;99.90
25208;DHT22;13153;52.316;21.166;2023-05-07T00:45:48;6.20;99.90
25208;DHT22;13153;52.316;21.166;2023-05-07T00:48:14;6.20;99.90
25208;DHT22;13153;52.316;21.166;2023-05-07T00:50:41;6.20;99.90
25208;DHT22;13153;52.316;21.166;2023-05-07T00:53:07;6.20;99.90
25208;DHT22;13153;52.316;21.166;2023-05-07T00:55:33;6.10;99.90
25208;DHT22;13153;52.316;21.166;2023-05-07T00:58:00;6.10;99.90
25208;DHT22;13153;52.316;21.166;2023-05-07T01:00:26;6.10;99.90
25208;DHT22;13153;52.316;21.166;2023-05-07T01:02:52;6.10;99.90
25208;DHT22;13153;52.316;21.166;2023-05-07T01:05:19;6.10;99.90
25208;DHT22;13153;52.316;21.166;2023-05-07T01:07:47;6.10;99.90
25208;DHT22;13153;52.316;21.166;2023-05-07T01:10:15;6.10;99.90
25208;DHT22;13153;52.316;21.166;2023-05-07T01:12:42;6.10;99.90
25208;DHT22;13153;52.316;21.166;2023-05-07T01:15:09;6.10;99.90
25208;DHT22;13153;52.316;21.166;2023-05-07T01:17:36;6.10;99.90
25208;DHT22;13153;52.316;21.166;2023-05-07T01:20:07;6.00;99.90
25208;DHT22;13153;52.316;21.166;2023-05-07T01:22:37;6.00;99.90
25208;DHT22;13153;52.316;21.166;2023-05-07T01:25:05;6.00;99.90
25208;DHT22;13153;52.316;21.166;2023-05-07T01:27:33;6.00;99.90
25208;DHT22;13153;52.316;21.166;2023-05-07T01:30:02;6.00;99.90
25208;DHT22;13153;52.316;21.166;2023-05-07T01:32:42;6.00;99.90
25208;DHT22;13153;52.316;21.166;2023-05-07T01:35:16;6.00;99.90
25208;DHT22;13153;52.316;21.166;2023-05-07T01:37:46;6.00;99.90
25208;DHT22;13153;52.316;21.166;2023-05-07T01:40:13;6.00;99.90
25208;DHT22;13153;52.316;21.166;2023-05-07T01:42:41;6.00;99.90
25208;DHT22;13153;52.316;21.166;2023-05-07T01:45:08;6.00;99.90
25208;DHT22;13153;52.316;21.166;2023-05-07T01:47:36;6.00;99.90
25208;DHT22;13153;52.316;21.166;2023-05-07T01:50:06;6.00;99.90
25208;DHT22;13153;52.316;21.166;2023-05-07T01:52:34;5.90;99.90
25208;DHT22;13153;52.316;21.166;2023-05-07T01:55:00;5.90;99.90
25208;DHT22;13153;52.316;21.166;2023-05-07T01:57:25;5.90;99.90
25208;DHT22;13153;52.316;21.166;2023-05-07T01:59:51;5.90;99.90
25208;DHT22;13153;52.316;21.166;2023-05-07T02:02:17;5.80;99.90
25208;DHT22;13153;52.316;21.166;2023-05-07T02:04:43;5.80;99.90
25208;DHT22;13153;52.316;21.166;2023-05-07T02:07:08;5.80;99.90
25208;DHT22;13153;52.316;21.166;2023-05-07T02:09:34;5.80;99.90
25208;DHT22;13153;52.316;21.166;2023-05-07T02:12:00;5.80;99.90
25208;DHT22;13153;52.316;21.166;2023-05-07T02:14:26;5.80;99.90
25208;DHT22;13153;52.316;21.166;2023-05-07T02:16:52;5.80;99.90
25208;DHT22;13153;52.316;21.166;2023-05-07T02:19:18;5.80;99.90
25208;DHT22;13153;52.316;21.166;2023-05-07T02:21:46;5.90;99.90
25208;DHT22;13153;52.316;21.166;2023-05-07T02:24:13;5.80;99.90
25208;DHT22;13153;52.316;21.166;2023-05-07T02:26:40;5.80;99.90
25208;DHT22;13153;52.316;21.166;2023-05-07T02:29:06;5.80;99.90
25208;DHT22;13153;52.316;21.166;2023-05-07T02:31:32;5.80;99.90
25208;DHT22;13153;52.316;21.166;2023-05-07T02:33:59;5.80;99.90
25208;DHT22;13153;52.316;21.166;2023-05-07T02:36:25;5.70;99.90
25208;DHT22;13153;52.316;21.166;2023-05-07T02:38:52;5.70;99.90
25208;DHT22;13153;52.316;21.166;2023-05-07T02:41:18;5.70;99.90
25208;DHT22;13153;52.316;21.166;2023-05-07T02:43:44;5.70;99.90
25208;DHT22;13153;52.316;21.166;2023-05-07T02:46:10;5.70;99.90
25208;DHT22;13153;52.316;21.166;2023-05-07T02:48:36;5.70;99.90
25208;DHT22;13153;52.316;21.166;2023-05-07T02:51:02;5.70;99.90
25208;DHT22;13153;52.316;21.166;2023-05-07T02:53:28;5.70;99.90
25208;DHT22;13153;52.316;21.166;2023-05-07T02:55:59;5.60;99.90
25208;DHT22;13153;52.316;21.166;2023-05-07T02:58:26;5.60;99.90
25208;DHT22;13153;52.316;21.166;2023-05-07T03:00:52;5.60;99.90
25208;DHT22;13153;52.316;21.166;2023-05-07T03:03:20;5.60;99.90
25208;DHT22;13153;52.316;21.166;2023-05-07T03:05:46;5.60;99.90
25208;DHT22;13153;52.316;21.166;2023-05-07T03:08:12;5.60;99.90
25208;DHT22;13153;52.316;21.166;2023-05-07T03:10:38;5.60;99.90
25208;DHT22;13153;52.316;21.166;2023-05-07T03:13:04;5.60;99.90
25208;DHT22;13153;52.316;21.166;2023-05-07T03:15:30;5.70;99.90
25208;DHT22;13153;52.316;21.166;2023-05-07T03:17:56;5.70;99.90
25208;DHT22;13153;52.316;21.166;2023-05-07T03:20:22;5.70;99.90
25208;DHT22;13153;52.316;21.166;2023-05-07T03:22:48;5.70;99.90
25208;DHT22;13153;52.316;21.166;2023-05-07T03:25:14;5.70;99.90
25208;DHT22;13153;52.316;21.166;2023-05-07T03:27:40;5.70;99.90
25208;DHT22;13153;52.316;21.166;2023-05-07T03:30:08;5.80;99.90
25208;DHT22;13153;52.316;21.166;2023-05-07T03:32:34;5.80;99.90
25208;DHT22;13153;52.316;21.166;2023-05-07T03:35:01;5.80;99.90
25208;DHT22;13153;52.316;21.166;2023-05-07T03:37:27;5.70;99.90
25208;DHT22;13153;52.316;21.166;2023-05-07T03:39:53;5.70;99.90
25208;DHT22;13153;52.316;21.166;2023-05-07T03:42:19;5.80;99.90
25208;DHT22;13153;52.316;21.166;2023-05-07T03:44:45;5.70;99.90
25208;DHT22;13153;52.316;21.166;2023-05-07T03:47:11;5.80;99.90
25208;DHT22;13153;52.316;21.166;2023-05-07T03:49:38;5.80;99.90
25208;DHT22;13153;52.316;21.166;2023-05-07T03:52:05;5.80;99.90
25208;DHT22;13153;52.316;21.166;2023-05-07T03:54:31;5.80;99.90
25208;DHT22;13153;52.316;21.166;2023-05-07T03:56:57;5.80;99.90
25208;DHT22;13153;52.316;21.166;2023-05-07T03:59:23;5.70;99.90
25208;DHT22;13153;52.316;21.166;2023-05-07T04:01:48;5.80;99.90
25208;DHT22;13153;52.316;21.166;2023-05-07T04:04:15;5.80;99.90
25208;DHT22;13153;52.316;21.166;2023-05-07T04:06:41;5.80;99.90
25208;DHT22;13153;52.316;21.166;2023-05-07T04:09:07;5.80;99.90
25208;DHT22;13153;52.316;21.166;2023-05-07T04:11:33;5.80;99.90
25208;DHT22;13153;52.316;21.166;2023-05-07T04:13:58;5.80;99.90
25208;DHT22;13153;52.316;21.166;2023-05-07T04:16:24;5.90;99.90
25208;DHT22;13153;52.316;21.166;2023-05-07T04:18:50;5.90;99.90
25208;DHT22;13153;52.316;21.166;2023-05-07T04:21:17;6.00;99.90
25208;DHT22;13153;52.316;21.166;2023-05-07T04:23:44;6.00;99.90
25208;DHT22;13153;52.316;21.166;2023-05-07T04:26:10;6.00;99.90
25208;DHT22;13153;52.316;21.166;2023-05-07T04:28:36;6.00;99.90
25208;DHT22;13153;52.316;21.166;2023-05-07T04:31:02;6.00;99.90
25208;DHT22;13153;52.316;21.166;2023-05-07T04:33:27;6.00;99.90
25208;DHT22;13153;52.316;21.166;2023-05-07T04:35:53;6.00;99.90
25208;DHT22;13153;52.316;21.166;2023-05-07T04:38:19;6.00;99.90
25208;DHT22;13153;52.316;21.166;2023-05-07T04:40:45;6.10;99.90
25208;DHT22;13153;52.316;21.166;2023-05-07T04:43:12;6.10;99.90
25208;DHT22;13153;52.316;21.166;2023-05-07T04:45:38;6.10;99.90
25208;DHT22;13153;52.316;21.166;2023-05-07T04:48:07;6.10;99.90
25208;DHT22;13153;52.316;21.166;2023-05-07T04:50:34;6.10;99.90
25208;DHT22;13153;52.316;21.166;2023-05-07T04:52:59;6.10;99.90
25208;DHT22;13153;52.316;21.166;2023-05-07T04:55:25;6.20;99.90
25208;DHT22;13153;52.316;21.166;2023-05-07T04:57:52;6.10;99.90
25208;DHT22;13153;52.316;21.166;2023-05-07T05:00:18;6.20;99.90
25208;DHT22;13153;52.316;21.166;2023-05-07T05:02:45;6.20;99.90
25208;DHT22;13153;52.316;21.166;2023-05-07T05:05:11;6.20;99.90
25208;DHT22;13153;52.316;21.166;2023-05-07T05:07:37;6.30;99.90
25208;DHT22;13153;52.316;21.166;2023-05-07T05:10:04;6.20;99.90
25208;DHT22;13153;52.316;21.166;2023-05-07T05:12:31;6.30;99.90
25208;DHT22;13153;52.316;21.166;2023-05-07T05:14:57;6.30;99.90
25208;DHT22;13153;52.316;21.166;2023-05-07T05:17:22;6.20;99.90
25208;DHT22;13153;52.316;21.166;2023-05-07T05:19:48;6.30;99.90
25208;DHT22;13153;52.316;21.166;2023-05-07T05:22:14;6.30;99.90
25208;DHT22;13153;52.316;21.166;2023-05-07T05:24:40;6.30;99.90
25208;DHT22;13153;52.316;21.166;2023-05-07T05:27:06;6.30;99.90
25208;DHT22;13153;52.316;21.166;2023-05-07T05:29:32;6.30;99.90
25208;DHT22;13153;52.316;21.166;2023-05-07T05:31:57;6.30;99.90
25208;DHT22;13153;52.316;21.166;2023-05-07T05:34:23;6.30;99.90
25208;DHT22;13153;52.316;21.166;2023-05-07T05:36:49;6.30;99.90
25208;DHT22;13153;52.316;21.166;2023-05-07T05:39:14;6.30;99.90
25208;DHT22;13153;52.316;21.166;2023-05-07T05:41:40;6.30;99.90
25208;DHT22;13153;52.316;21.166;2023-05-07T05:44:06;6.30;99.90
25208;DHT22;13153;52.316;21.166;2023-05-07T05:46:32;6.30;99.90
25208;DHT22;13153;52.316;21.166;2023-05-07T05:48:57;6.30;99.90
25208;DHT22;13153;52.316;21.166;2023-05-07T05:51:23;6.30;99.90
25208;DHT22;13153;52.316;21.166;2023-05-07T05:53:49;6.30;99.90
25208;DHT22;13153;52.316;21.166;2023-05-07T05:56:15;6.40;99.90
25208;DHT22;13153;52.316;21.166;2023-05-07T05:58:41;6.30;99.90
25208;DHT22;13153;52.316;21.166;2023-05-07T06:01:07;6.40;99.90
25208;DHT22;13153;52.316;21.166;2023-05-07T06:03:33;6.50;99.90
25208;DHT22;13153;52.316;21.166;2023-05-07T06:05:59;6.50;99.90
25208;DHT22;13153;52.316;21.166;2023-05-07T06:08:29;6.50;99.90
25208;DHT22;13153;52.316;21.166;2023-05-07T06:10:55;6.60;99.90
25208;DHT22;13153;52.316;21.166;2023-05-07T06:13:21;6.60;99.90
25208;DHT22;13153;52.316;21.166;2023-05-07T06:15:49;6.60;99.90
25208;DHT22;13153;52.316;21.166;2023-05-07T06:18:15;6.60;99.90
25208;DHT22;13153;52.316;21.166;2023-05-07T06:20:40;6.70;99.90
25208;DHT22;13153;52.316;21.166;2023-05-07T06:23:06;6.70;99.90
25208;DHT22;13153;52.316;21.166;2023-05-07T06:25:32;6.80;99.90
25208;DHT22;13153;52.316;21.166;2023-05-07T06:27:58;6.80;99.90
25208;DHT22;13153;52.316;21.166;2023-05-07T06:30:23;6.90;99.90
25208;DHT22;13153;52.316;21.166;2023-05-07T06:32:49;6.90;99.90
25208;DHT22;13153;52.316;21.166;2023-05-07T06:35:15;6.90;99.90
25208;DHT22;13153;52.316;21.166;2023-05-07T06:37:41;6.90;99.90
25208;DHT22;13153;52.316;21.166;2023-05-07T06:40:08;7.00;99.90
25208;DHT22;13153;52.316;21.166;2023-05-07T06:42:36;6.90;99.90
25208;DHT22;13153;52.316;21.166;2023-05-07T06:45:03;7.00;99.90
25208;DHT22;13153;52.316;21.166;2023-05-07T06:47:29;7.00;99.90
25208;DHT22;13153;52.316;21.166;2023-05-07T06:49:55;7.00;99.90
25208;DHT22;13153;52.316;21.166;2023-05-07T06:52:21;7.00;99.90
25208;DHT22;13153;52.316;21.166;2023-05-07T06:54:47;7.00;99.90
25208;DHT22;13153;52.316;21.166;2023-05-07T06:57:12;7.10;99.90
25208;DHT22;13153;52.316;21.166;2023-05-07T06:59:38;7.10;99.90
25208;DHT22;13153;52.316;21.166;2023-05-07T07:02:04;7.00;99.90
25208;DHT22;13153;52.316;21.166;2023-05-07T07:04:30;7.10;99.90
25208;DHT22;13153;52.316;21.166;2023-05-07T07:06:56;7.10;99.90
25208;DHT22;13153;52.316;21.166;2023-05-07T07:09:22;7.10;99.90
25208;DHT22;13153;52.316;21.166;2023-05-07T07:11:48;7.10;99.90
25208;DHT22;13153;52.316;21.166;2023-05-07T07:14:13;7.20;99.90
25208;DHT22;13153;52.316;21.166;2023-05-07T07:16:39;7.20;99.90
25208;DHT22;13153;52.316;21.166;2023-05-07T07:19:06;7.20;99.90
25208;DHT22;13153;52.316;21.166;2023-05-07T07:21:32;7.20;99.90
25208;DHT22;13153;52.316;21.166;2023-05-07T07:23:57;7.20;99.90
25208;DHT22;13153;52.316;21.166;2023-05-07T07:26:23;7.30;99.90
25208;DHT22;13153;52.316;21.166;2023-05-07T07:28:49;7.40;99.90
25208;DHT22;13153;52.316;21.166;2023-05-07T07:31:15;7.40;99.90
25208;DHT22;13153;52.316;21.166;2023-05-07T07:33:41;7.30;99.90
25208;DHT22;13153;52.316;21.166;2023-05-07T07:36:07;7.40;99.90
25208;DHT22;13153;52.316;21.166;2023-05-07T07:38:33;7.40;99.90
25208;DHT22;13153;52.316;21.166;2023-05-07T07:41:00;7.50;99.90
25208;DHT22;13153;52.316;21.166;2023-05-07T07:43:26;7.60;99.90
25208;DHT22;13153;52.316;21.166;2023-05-07T07:45:53;7.60;99.90
25208;DHT22;13153;52.316;21.166;2023-05-07T07:48:18;7.60;99.90
25208;DHT22;13153;52.316;21.166;2023-05-07T07:50:44;7.70;99.90
25208;DHT22;13153;52.316;21.166;2023-05-07T07:53:10;7.70;99.90
25208;DHT22;13153;52.316;21.166;2023-05-07T07:55:39;7.90;99.90
25208;DHT22;13153;52.316;21.166;2023-05-07T07:58:05;7.90;99.90
25208;DHT22;13153;52.316;21.166;2023-05-07T08:00:31;8.10;99.90
25208;DHT22;13153;52.316;21.166;2023-05-07T08:02:57;8.20;99.90
25208;DHT22;13153;52.316;21.166;2023-05-07T08:05:23;8.10;99.90
25208;DHT22;13153;52.316;21.166;2023-05-07T08:07:49;8.10;99.90
25208;DHT22;13153;52.316;21.166;2023-05-07T08:10:18;8.20;99.90
25208;DHT22;13153;52.316;21.166;2023-05-07T08:12:50;8.30;99.90
25208;DHT22;13153;52.316;21.166;2023-05-07T08:15:16;8.30;99.90
25208;DHT22;13153;52.316;21.166;2023-05-07T08:17:43;8.30;99.90
25208;DHT22;13153;52.316;21.166;2023-05-07T08:20:09;8.30;99.90
25208;DHT22;13153;52.316;21.166;2023-05-07T08:22:36;8.20;99.90
25208;DHT22;13153;52.316;21.166;2023-05-07T08:25:03;8.20;99.90
25208;DHT22;13153;52.316;21.166;2023-05-07T08:27:28;8.20;99.90
25208;DHT22;13153;52.316;21.166;2023-05-07T08:29:54;8.50;99.90
25208;DHT22;13153;52.316;21.166;2023-05-07T08:32:20;8.70;99.90
25208;DHT22;13153;52.316;21.166;2023-05-07T08:34:47;9.00;99.90
25208;DHT22;13153;52.316;21.166;2023-05-07T08:37:13;9.20;99.90
25208;DHT22;13153;52.316;21.166;2023-05-07T08:39:39;9.10;99.90
25208;DHT22;13153;52.316;21.166;2023-05-07T08:42:05;9.00;99.90
25208;DHT22;13153;52.316;21.166;2023-05-07T08:44:33;9.00;99.90
25208;DHT22;13153;52.316;21.166;2023-05-07T08:47:06;8.90;99.90
25208;DHT22;13153;52.316;21.166;2023-05-07T08:49:33;9.00;99.90
25208;DHT22;13153;52.316;21.166;2023-05-07T08:52:00;9.10;99.90
25208;DHT22;13153;52.316;21.166;2023-05-07T08:54:27;9.20;99.90
25208;DHT22;13153;52.316;21.166;2023-05-07T08:56:54;9.30;99.90
25208;DHT22;13153;52.316;21.166;2023-05-07T08:59:20;9.50;99.90
25208;DHT22;13153;52.316;21.166;2023-05-07T09:01:46;9.50;99.90
25208;DHT22;13153;52.316;21.166;2023-05-07T09:04:12;9.60;99.90
25208;DHT22;13153;52.316;21.166;2023-05-07T09:06:38;9.50;99.90
25208;DHT22;13153;52.316;21.166;2023-05-07T09:09:07;9.50;99.90
25208;DHT22;13153;52.316;21.166;2023-05-07T09:11:33;9.40;99.90
25208;DHT22;13153;52.316;21.166;2023-05-07T09:13:59;9.40;99.90
25208;DHT22;13153;52.316;21.166;2023-05-07T09:16:28;9.50;99.90
25208;DHT22;13153;52.316;21.166;2023-05-07T09:18:58;9.70;99.90
25208;DHT22;13153;52.316;21.166;2023-05-07T09:21:25;9.80;99.90
25208;DHT22;13153;52.316;21.166;2023-05-07T09:23:53;9.80;99.90
25208;DHT22;13153;52.316;21.166;2023-05-07T09:26:24;9.90;99.90
25208;DHT22;13153;52.316;21.166;2023-05-07T09:28:51;9.90;99.90
25208;DHT22;13153;52.316;21.166;2023-05-07T09:31:17;10.00;99.90
25208;DHT22;13153;52.316;21.166;2023-05-07T09:33:43;10.00;99.90
25208;DHT22;13153;52.316;21.166;2023-05-07T09:36:09;10.10;99.90
25208;DHT22;13153;52.316;21.166;2023-05-07T09:38:36;10.20;99.90
25208;DHT22;13153;52.316;21.166;2023-05-07T09:41:11;10.30;99.90
25208;DHT22;13153;52.316;21.166;2023-05-07T09:43:39;10.60;99.90
25208;DHT22;13153;52.316;21.166;2023-05-07T09:46:15;10.70;99.90
25208;DHT22;13153;52.316;21.166;2023-05-07T09:48:43;10.90;99.90
25208;DHT22;13153;52.316;21.166;2023-05-07T09:51:51;10.70;99.90
25208;DHT22;13153;52.316;21.166;2023-05-07T09:54:17;10.50;99.90
25208;DHT22;13153;52.316;21.166;2023-05-07T09:56:48;10.40;99.90
25208;DHT22;13153;52.316;21.166;2023-05-07T09:59:16;10.50;99.90
25208;DHT22;13153;52.316;21.166;2023-05-07T10:01:43;10.50;99.90
25208;DHT22;13153;52.316;21.166;2023-05-07T10:04:10;10.60;99.90
25208;DHT22;13153;52.316;21.166;2023-05-07T10:06:38;10.80;99.90
25208;DHT22;13153;52.316;21.166;2023-05-07T10:09:05;10.80;99.90
25208;DHT22;13153;52.316;21.166;2023-05-07T10:11:35;10.80;99.90
25208;DHT22;13153;52.316;21.166;2023-05-07T10:14:02;10.60;99.90
25208;DHT22;13153;52.316;21.166;2023-05-07T10:16:34;10.50;99.90
25208;DHT22;13153;52.316;21.166;2023-05-07T10:19:08;10.50;99.90
25208;DHT22;13153;52.316;21.166;2023-05-07T10:21:37;10.50;99.90
25208;DHT22;13153;52.316;21.166;2023-05-07T10:24:09;10.50;99.90
25208;DHT22;13153;52.316;21.166;2023-05-07T10:26:40;10.50;99.90
25208;DHT22;13153;52.316;21.166;2023-05-07T10:34:37;10.60;99.90
25208;DHT22;13153;52.316;21.166;2023-05-07T10:37:06;10.50;99.90
25208;DHT22;13153;52.316;21.166;2023-05-07T10:39:33;10.60;99.90
25208;DHT22;13153;52.316;21.166;2023-05-07T10:42:10;10.70;99.90
25208;DHT22;13153;52.316;21.166;2023-05-07T10:44:37;10.80;99.90
25208;DHT22;13153;52.316;21.166;2023-05-07T10:47:07;10.70;99.90
25208;DHT22;13153;52.316;21.166;2023-05-07T10:52:22;10.50;99.90
25208;DHT22;13153;52.316;21.166;2023-05-07T10:57:45;10.60;99.90
25208;DHT22;13153;52.316;21.166;2023-05-07T11:05:28;11.00;99.90
25208;DHT22;13153;52.316;21.166;2023-05-07T11:08:03;11.00;99.90
25208;DHT22;13153;52.316;21.166;2023-05-07T11:10:53;10.80;99.90
25208;DHT22;13153;52.316;21.166;2023-05-07T11:13:46;10.70;99.90
25208;DHT22;13153;52.316;21.166;2023-05-07T11:16:19;10.80;99.90
25208;DHT22;13153;52.316;21.166;2023-05-07T11:18:51;10.70;99.90
25208;DHT22;13153;52.316;21.166;2023-05-07T11:24:01;10.50;99.90
25208;DHT22;13153;52.316;21.166;2023-05-07T11:26:29;10.30;99.90
25208;DHT22;13153;52.316;21.166;2023-05-07T11:28:57;10.30;99.90
25208;DHT22;13153;52.316;21.166;2023-05-07T11:31:25;10.20;99.90
25208;DHT22;13153;52.316;21.166;2023-05-07T11:33:54;10.20;99.90
25208;DHT22;13153;52.316;21.166;2023-05-07T11:36:21;10.30;99.90
25208;DHT22;13153;52.316;21.166;2023-05-07T11:38:48;10.40;99.90
25208;DHT22;13153;52.316;21.166;2023-05-07T11:41:16;10.50;99.90
25208;DHT22;13153;52.316;21.166;2023-05-07T11:43:56;10.50;99.90
25208;DHT22;13153;52.316;21.166;2023-05-07T11:46:23;10.60;99.90
25208;DHT22;13153;52.316;21.166;2023-05-07T11:48:49;10.60;99.90
25208;DHT22;13153;52.316;21.166;2023-05-07T11:51:19;10.80;99.90
25208;DHT22;13153;52.316;21.166;2023-05-07T11:53:49;10.90;99.90
25208;DHT22;13153;52.316;21.166;2023-05-07T11:56:17;11.10;99.90
25208;DHT22;13153;52.316;21.166;2023-05-07T11:58:45;11.20;99.90
25208;DHT22;13153;52.316;21.166;2023-05-07T12:01:13;11.10;99.90
25208;DHT22;13153;52.316;21.166;2023-05-07T12:03:41;11.00;99.90
25208;DHT22;13153;52.316;21.166;2023-05-07T12:06:08;10.90;99.90
25208;DHT22;13153;52.316;21.166;2023-05-07T12:08:39;10.90;99.90
25208;DHT22;13153;52.316;21.166;2023-05-07T12:11:08;10.90;99.90
25208;DHT22;13153;52.316;21.166;2023-05-07T12:13:42;10.90;99.90
25208;DHT22;13153;52.316;21.166;2023-05-07T12:16:08;10.90;99.90
25208;DHT22;13153;52.316;21.166;2023-05-07T12:18:36;11.10;99.90
25208;DHT22;13153;52.316;21.166;2023-05-07T12:21:04;11.10;99.90
25208;DHT22;13153;52.316;21.166;2023-05-07T12:23:31;11.20;99.90
25208;DHT22;13153;52.316;21.166;2023-05-07T12:25:59;11.20;99.90
25208;DHT22;13153;52.316;21.166;2023-05-07T12:28:25;11.30;99.90
25208;DHT22;13153;52.316;21.166;2023-05-07T12:30:51;11.20;99.90
25208;DHT22;13153;52.316;21.166;2023-05-07T12:33:20;11.30;99.90
25208;DHT22;13153;52.316;21.166;2023-05-07T12:35:50;11.20;99.90
25208;DHT22;13153;52.316;21.166;2023-05-07T12:38:17;11.20;99.90
25208;DHT22;13153;52.316;21.166;2023-05-07T12:40:48;11.00;99.90
25208;DHT22;13153;52.316;21.166;2023-05-07T12:43:27;10.90;99.90
25208;DHT22;13153;52.316;21.166;2023-05-07T12:45:54;10.80;99.90
25208;DHT22;13153;52.316;21.166;2023-05-07T12:48:22;10.80;99.90
25208;DHT22;13153;52.316;21.166;2023-05-07T12:50:50;10.80;99.90
25208;DHT22;13153;52.316;21.166;2023-05-07T12:53:16;10.90;99.90
25208;DHT22;13153;52.316;21.166;2023-05-07T12:55:44;11.00;99.90
25208;DHT22;13153;52.316;21.166;2023-05-07T12:58:19;11.00;99.90
25208;DHT22;13153;52.316;21.166;2023-05-07T13:00:49;11.10;99.90
25208;DHT22;13153;52.316;21.166;2023-05-07T13:03:31;11.00;99.90
25208;DHT22;13153;52.316;21.166;2023-05-07T13:06:00;11.00;99.90
25208;DHT22;13153;52.316;21.166;2023-05-07T13:08:38;10.90;99.90
25208;DHT22;13153;52.316;21.166;2023-05-07T13:11:08;11.00;99.90
25208;DHT22;13153;52.316;21.166;2023-05-07T13:13:36;11.10;99.90
25208;DHT22;13153;52.316;21.166;2023-05-07T13:16:05;11.00;99.90
25208;DHT22;13153;52.316;21.166;2023-05-07T13:18:32;11.00;99.90
25208;DHT22;13153;52.316;21.166;2023-05-07T13:20:59;11.00;99.90
25208;DHT22;13153;52.316;21.166;2023-05-07T13:23:27;11.00;99.90
25208;DHT22;13153;52.316;21.166;2023-05-07T13:25:53;11.00;99.90
25208;DHT22;13153;52.316;21.166;2023-05-07T13:28:19;11.00;99.90
25208;DHT22;13153;52.316;21.166;2023-05-07T13:30:46;11.00;99.90
25208;DHT22;13153;52.316;21.166;2023-05-07T13:33:12;11.00;99.90
25208;DHT22;13153;52.316;21.166;2023-05-07T13:35:39;11.00;99.90
25208;DHT22;13153;52.316;21.166;2023-05-07T13:38:05;11.10;99.90
25208;DHT22;13153;52.316;21.166;2023-05-07T13:40:31;11.10;99.90
25208;DHT22;13153;52.316;21.166;2023-05-07T13:42:58;11.10;99.90
25208;DHT22;13153;52.316;21.166;2023-05-07T13:45:26;11.20;99.90
25208;DHT22;13153;52.316;21.166;2023-05-07T13:47:52;11.20;99.90
25208;DHT22;13153;52.316;21.166;2023-05-07T13:50:18;11.20;99.90
25208;DHT22;13153;52.316;21.166;2023-05-07T13:52:44;11.20;99.90
25208;DHT22;13153;52.316;21.166;2023-05-07T13:55:23;11.20;99.90
25208;DHT22;13153;52.316;21.166;2023-05-07T13:57:58;11.10;99.90
25208;DHT22;13153;52.316;21.166;2023-05-07T14:00:26;11.10;99.90
25208;DHT22;13153;52.316;21.166;2023-05-07T14:02:53;11.10;99.90
25208;DHT22;13153;52.316;21.166;2023-05-07T14:05:19;11.10;99.90
25208;DHT22;13153;52.316;21.166;2023-05-07T14:07:45;11.00;99.90
25208;DHT22;13153;52.316;21.166;2023-05-07T14:10:12;11.00;99.90
25208;DHT22;13153;52.316;21.166;2023-05-07T14:12:38;11.00;99.90
25208;DHT22;13153;52.316;21.166;2023-05-07T14:15:04;11.00;99.90
25208;DHT22;13153;52.316;21.166;2023-05-07T14:17:30;11.00;99.90
25208;DHT22;13153;52.316;21.166;2023-05-07T14:19:57;11.10;99.90
25208;DHT22;13153;52.316;21.166;2023-05-07T14:22:23;11.00;99.90
25208;DHT22;13153;52.316;21.166;2023-05-07T14:24:50;11.00;99.90
25208;DHT22;13153;52.316;21.166;2023-05-07T14:27:16;11.10;99.90
25208;DHT22;13153;52.316;21.166;2023-05-07T14:29:42;11.10;99.90
25208;DHT22;13153;52.316;21.166;2023-05-07T14:32:08;11.10;99.90
25208;DHT22;13153;52.316;21.166;2023-05-07T14:34:34;11.10;99.90
25208;DHT22;13153;52.316;21.166;2023-05-07T14:37:00;11.20;99.90
25208;DHT22;13153;52.316;21.166;2023-05-07T14:39:26;11.30;99.90
25208;DHT22;13153;52.316;21.166;2023-05-07T14:41:52;11.30;99.90
25208;DHT22;13153;52.316;21.166;2023-05-07T14:44:20;11.30;99.90
25208;DHT22;13153;52.316;21.166;2023-05-07T14:46:46;11.30;99.90
25208;DHT22;13153;52.316;21.166;2023-05-07T14:49:13;11.40;99.90
25208;DHT22;13153;52.316;21.166;2023-05-07T14:51:43;11.40;99.90
25208;DHT22;13153;52.316;21.166;2023-05-07T14:54:10;11.30;99.90
25208;DHT22;13153;52.316;21.166;2023-05-07T14:56:37;11.30;99.90
25208;DHT22;13153;52.316;21.166;2023-05-07T14:59:03;11.30;99.90
25208;DHT22;13153;52.316;21.166;2023-05-07T15:01:29;11.30;99.90
25208;DHT22;13153;52.316;21.166;2023-05-07T15:03:55;11.20;99.90
25208;DHT22;13153;52.316;21.166;2023-05-07T15:06:21;11.20;99.90
25208;DHT22;13153;52.316;21.166;2023-05-07T15:08:47;11.30;99.90
25208;DHT22;13153;52.316;21.166;2023-05-07T15:11:16;11.30;99.90
25208;DHT22;13153;52.316;21.166;2023-05-07T15:13:42;11.30;99.90
25208;DHT22;13153;52.316;21.166;2023-05-07T15:16:08;11.30;99.90
25208;DHT22;13153;52.316;21.166;2023-05-07T15:18:34;11.40;99.90
25208;DHT22;13153;52.316;21.166;2023-05-07T15:21:00;11.30;99.90
25208;DHT22;13153;52.316;21.166;2023-05-07T15:23:26;11.20;99.90
25208;DHT22;13153;52.316;21.166;2023-05-07T15:25:52;11.30;99.90
25208;DHT22;13153;52.316;21.166;2023-05-07T15:28:19;11.30;99.90
25208;DHT22;13153;52.316;21.166;2023-05-07T15:30:45;11.40;99.90
25208;DHT22;13153;52.316;21.166;2023-05-07T15:33:11;11.40;99.90
25208;DHT22;13153;52.316;21.166;2023-05-07T15:35:36;11.30;99.90
25208;DHT22;13153;52.316;21.166;2023-05-07T15:38:02;11.30;99.90
25208;DHT22;13153;52.316;21.166;2023-05-07T15:40:29;11.30;99.90
25208;DHT22;13153;52.316;21.166;2023-05-07T15:42:56;11.30;99.90
25208;DHT22;13153;52.316;21.166;2023-05-07T15:45:23;11.30;99.90